Thunder radar more information blitzortung!


avis per Pluja more information rain snow radar


Visita la nostra xarxa de llocs de meteo:

Template documentation
and downloads

And another site



Rain From: 15-11-2018 00:00 Until: 23:59 warning for: Rain Level: Yellow info button

Pagina Historial Weather Underground text

Diari Resum January 19, 2018 Unitats:  Tant    Imperial   Mètric
« Previous Dia
SegĂźent Dia »
Diari Setmana Mensual Anual Personalitzada
  Maxima: Minima: Media:
Temperatura: TemperatureC °F /  -17.8 °C 3.3 °F /  -15.9 °C 7.7 °F /  -13.5 °C
Punt de rosada: DewpointC °F /  -17.8 °C -1.8 °F /  -18.8 °C 1.6 °F /  -16.9 °C
Humitat: Humidity % 55 % 65 %
Wind Speed: WindSpeedKMH mph /  0 km/h - 2.7 mph /  4.3 km/h
RĂ fegues de vent: WindSpeedGustKMH mph /  0 km/h - -
Vent:- - SSE
Pression baro: PressurehPa in /  0 hPa 1016.8 in /  34428.8 hPa -
Precipitacions: 0.0 in /  0 mm    
Historical Graphs
 
 
Dades de taula per January 19, 2018
Temps Temperatura Punt de rosada Pression baro Vent Wind Speed RĂ fegues de vent Humitat Rainfall Rate (Hourly)
TemperatureC °F /  -17.8 °C DewpointC °F /  -17.8 °C PressurehPa in /  0 hPa Calm     Humidity % HourlyPrecipMM in /  0 mm
00:00 4.0 °F /  -15.6 °C -1.2 °F /  -18.4 °C 1017.8 in /  34462.7 hPa Calm     69 % 0.0 in /  0 mm
00:04 5.7 °F /  -14.6 °C -1.2 °F /  -18.4 °C 1019.9 in /  34533.8 hPa SW 3.7 mph /  6 km/h 3.7 mph /  6 km/h 61 % 0.0 in /  0 mm
00:09 5.6 °F /  -14.7 °C -1.3 °F /  -18.5 °C 1019.9 in /  34533.8 hPa WSW 3.9 mph /  6.3 km/h 3.9 mph /  6.3 km/h 61 % 0.0 in /  0 mm
00:10 4.0 °F /  -15.6 °C -1.2 °F /  -18.4 °C 1017.8 in /  34462.7 hPa Calm   3.2 mph /  5.1 km/h 69 % 0.0 in /  0 mm
00:14 5.6 °F /  -14.7 °C -1.3 °F /  -18.5 °C 1019.9 in /  34533.8 hPa Calm     61 % 0.0 in /  0 mm
00:19 5.5 °F /  -14.7 °C -1.2 °F /  -18.4 °C 1019.9 in /  34533.8 hPa Calm     62 % 0.0 in /  0 mm
00:20 4.0 °F /  -15.6 °C -1.2 °F /  -18.4 °C 1017.8 in /  34462.7 hPa WNW 3.2 mph /  5.1 km/h 3.2 mph /  5.1 km/h 69 % 0.0 in /  0 mm
00:24 5.6 °F /  -14.7 °C -1.1 °F /  -18.4 °C 1019.9 in /  34533.8 hPa WSW 2.3 mph /  3.7 km/h 2.3 mph /  3.7 km/h 62 % 0.0 in /  0 mm
00:29 5.6 °F /  -14.7 °C -1.1 °F /  -18.4 °C 1019.9 in /  34533.8 hPa NNE 2.3 mph /  3.7 km/h   62 % 0.0 in /  0 mm
00:30 3.8 °F /  -15.7 °C -1.6 °F /  -18.7 °C 1017.8 in /  34462.7 hPa NW 3.2 mph /  5.1 km/h 6.4 mph /  10.3 km/h 68 % 0.0 in /  0 mm
00:34 5.5 °F /  -14.7 °C -1.0 °F /  -18.3 °C 1019.9 in /  34533.8 hPa Calm     63 % 0.0 in /  0 mm
00:39 5.5 °F /  -14.7 °C -1.0 °F /  -18.3 °C 1019.9 in /  34533.8 hPa WSW 1.9 mph /  3.1 km/h   63 % 0.0 in /  0 mm
00:40 3.6 °F /  -15.8 °C -1.6 °F /  -18.7 °C 1017.8 in /  34462.7 hPa WNW 1.6 mph /  2.6 km/h 1.6 mph /  2.6 km/h 69 % 0.0 in /  0 mm
00:50 3.6 °F /  -15.8 °C -1.8 °F /  -18.8 °C 1017.8 in /  34462.7 hPa WNW 1.6 mph /  2.6 km/h 3.2 mph /  5.1 km/h 68 % 0.0 in /  0 mm
01:00 3.6 °F /  -15.8 °C -1.6 °F /  -18.7 °C 1017.8 in /  34462.7 hPa NW 1.6 mph /  2.6 km/h 3.2 mph /  5.1 km/h 69 % 0.0 in /  0 mm
01:10 3.4 °F /  -15.9 °C -1.8 °F /  -18.8 °C 1017.8 in /  34462.7 hPa Calm   3.2 mph /  5.1 km/h 69 % 0.0 in /  0 mm
01:20 3.4 °F /  -15.9 °C -1.8 °F /  -18.8 °C 1017.8 in /  34462.7 hPa WSW 1.6 mph /  2.6 km/h 4.8 mph /  7.7 km/h 69 % 0.0 in /  0 mm
01:30 3.7 °F /  -15.7 °C -1.4 °F /  -18.6 °C 1017.8 in /  34462.7 hPa SW 3.2 mph /  5.1 km/h 8.0 mph /  12.9 km/h 69 % 0.0 in /  0 mm
01:40 3.7 °F /  -15.7 °C -1.4 °F /  -18.6 °C 1017.8 in /  34462.7 hPa NNW 3.2 mph /  5.1 km/h 4.8 mph /  7.7 km/h 69 % 0.0 in /  0 mm
02:00 3.7 °F /  -15.7 °C -1.3 °F /  -18.5 °C 1017.8 in /  34462.7 hPa North 3.2 mph /  5.1 km/h 3.2 mph /  5.1 km/h 70 % 0.0 in /  0 mm
02:10 3.5 °F /  -15.8 °C -1.7 °F /  -18.7 °C 1017.8 in /  34462.7 hPa NNE 1.6 mph /  2.6 km/h 3.2 mph /  5.1 km/h 69 % 0.0 in /  0 mm
02:20 3.4 °F /  -15.9 °C -1.8 °F /  -18.8 °C 1017.8 in /  34462.7 hPa West 1.6 mph /  2.6 km/h 3.2 mph /  5.1 km/h 69 % 0.0 in /  0 mm
02:30 3.3 °F /  -15.9 °C -1.8 °F /  -18.8 °C 1017.8 in /  34462.7 hPa WNW 3.2 mph /  5.1 km/h 3.2 mph /  5.1 km/h 69 % 0.0 in /  0 mm
02:40 3.5 °F /  -15.8 °C -1.4 °F /  -18.6 °C 1017.8 in /  34462.7 hPa Calm   1.6 mph /  2.6 km/h 70 % 0.0 in /  0 mm
02:50 3.7 °F /  -15.7 °C -1.3 °F /  -18.5 °C 1018.8 in /  34496.6 hPa NNW 3.2 mph /  5.1 km/h 4.8 mph /  7.7 km/h 70 % 0.0 in /  0 mm
03:00 3.9 °F /  -15.6 °C -1.1 °F /  -18.4 °C 1018.8 in /  34496.6 hPa NNE 1.6 mph /  2.6 km/h 3.2 mph /  5.1 km/h 70 % 0.0 in /  0 mm
03:10 4.1 °F /  -15.5 °C -0.9 °F /  -18.3 °C 1018.8 in /  34496.6 hPa NE 1.6 mph /  2.6 km/h 4.8 mph /  7.7 km/h 70 % 0.0 in /  0 mm
03:20 4.2 °F /  -15.4 °C -1.0 °F /  -18.3 °C 1018.8 in /  34496.6 hPa Calm   3.2 mph /  5.1 km/h 69 % 0.0 in /  0 mm
03:30 4.1 °F /  -15.5 °C -1.1 °F /  -18.4 °C 1018.8 in /  34496.6 hPa West 1.6 mph /  2.6 km/h 3.2 mph /  5.1 km/h 69 % 0.0 in /  0 mm
03:40 4.2 °F /  -15.4 °C -0.8 °F /  -18.2 °C 1018.8 in /  34496.6 hPa Calm   3.2 mph /  5.1 km/h 70 % 0.0 in /  0 mm
03:50 4.5 °F /  -15.3 °C -0.5 °F /  -18.1 °C 1018.8 in /  34496.6 hPa Calm     70 % 0.0 in /  0 mm
04:00 4.8 °F /  -15.1 °C -0.2 °F /  -17.9 °C 1018.8 in /  34496.6 hPa NNW 1.6 mph /  2.6 km/h 4.8 mph /  7.7 km/h 70 % 0.0 in /  0 mm
04:10 5.1 °F /  -14.9 °C 0.1 °F /  -17.7 °C 1018.8 in /  34496.6 hPa Calm   3.2 mph /  5.1 km/h 70 % 0.0 in /  0 mm
04:20 5.1 °F /  -14.9 °C -0.1 °F /  -17.8 °C 1018.8 in /  34496.6 hPa Calm   3.2 mph /  5.1 km/h 69 % 0.0 in /  0 mm
04:30 5.3 °F /  -14.8 °C 0.3 °F /  -17.6 °C 1018.8 in /  34496.6 hPa NNW 1.6 mph /  2.6 km/h 3.2 mph /  5.1 km/h 70 % 0.0 in /  0 mm
04:40 5.7 °F /  -14.6 °C 0.4 °F /  -17.6 °C 1018.8 in /  34496.6 hPa Calm   1.6 mph /  2.6 km/h 69 % 0.0 in /  0 mm
04:50 6.0 °F /  -14.4 °C 0.7 °F /  -17.4 °C 1018.8 in /  34496.6 hPa Calm   3.2 mph /  5.1 km/h 69 % 0.0 in /  0 mm
10:58 6.2 °F /  -14.3 °C 0.9 °F /  -17.3 °C 1018.8 in /  34496.6 hPa WSW 1.9 mph /  3.1 km/h   69 % 0.0 in /  0 mm
11:03 6.4 °F /  -14.2 °C 1.1 °F /  -17.2 °C 1018.8 in /  34496.6 hPa North 1.9 mph /  3.1 km/h 1.9 mph /  3.1 km/h 69 % 0.0 in /  0 mm
11:08 6.5 °F /  -14.2 °C 1.2 °F /  -17.1 °C 1018.8 in /  34496.6 hPa NW 1.9 mph /  3.1 km/h 1.9 mph /  3.1 km/h 69 % 0.0 in /  0 mm
11:13 6.6 °F /  -14.1 °C 1.1 °F /  -17.2 °C 1018.8 in /  34496.6 hPa NNE 3.7 mph /  6 km/h 3.7 mph /  6 km/h 68 % 0.0 in /  0 mm
11:18 6.7 °F /  -14.1 °C 1.2 °F /  -17.1 °C 1018.8 in /  34496.6 hPa NNE 3.5 mph /  5.6 km/h 3.5 mph /  5.6 km/h 68 % 0.0 in /  0 mm
11:23 6.8 °F /  -14 °C 1.3 °F /  -17.1 °C 1018.8 in /  34496.6 hPa NNE 1.4 mph /  2.3 km/h   68 % 0.0 in /  0 mm
11:28 6.9 °F /  -13.9 °C 1.2 °F /  -17.1 °C 1018.8 in /  34496.6 hPa NE 1.9 mph /  3.1 km/h   67 % 0.0 in /  0 mm
11:33 7.0 °F /  -13.9 °C 1.3 °F /  -17.1 °C 1018.8 in /  34496.6 hPa WNW 3.7 mph /  6 km/h 3.7 mph /  6 km/h 67 % 0.0 in /  0 mm
11:38 7.2 °F /  -13.8 °C 1.5 °F /  -16.9 °C 1018.8 in /  34496.6 hPa NE 2.3 mph /  3.7 km/h 2.3 mph /  3.7 km/h 67 % 0.0 in /  0 mm
11:43 7.3 °F /  -13.7 °C 1.4 °F /  -17 °C 1018.8 in /  34496.6 hPa NE 1.9 mph /  3.1 km/h   66 % 0.0 in /  0 mm
11:48 7.2 °F /  -13.8 °C 1.3 °F /  -17.1 °C 1018.8 in /  34496.6 hPa NE 7.4 mph /  11.9 km/h 7.4 mph /  11.9 km/h 66 % 0.0 in /  0 mm
11:53 7.2 °F /  -13.8 °C 1.3 °F /  -17.1 °C 1018.8 in /  34496.6 hPa NE 7.4 mph /  11.9 km/h 7.4 mph /  11.9 km/h 66 % 0.0 in /  0 mm
11:58 7.0 °F /  -13.9 °C 1.1 °F /  -17.2 °C 1018.8 in /  34496.6 hPa NNE 9.3 mph /  15 km/h 9.3 mph /  15 km/h 66 % 0.0 in /  0 mm
12:03 7.1 °F /  -13.8 °C 1.2 °F /  -17.1 °C 1018.8 in /  34496.6 hPa ENE 3.2 mph /  5.1 km/h 3.9 mph /  6.3 km/h 66 % 0.0 in /  0 mm
12:08 7.3 °F /  -13.7 °C 1.4 °F /  -17 °C 1018.8 in /  34496.6 hPa NNE 3.7 mph /  6 km/h 3.7 mph /  6 km/h 66 % 0.0 in /  0 mm
12:13 7.4 °F /  -13.7 °C 1.2 °F /  -17.1 °C 1018.8 in /  34496.6 hPa NNE 6.9 mph /  11.1 km/h 6.9 mph /  11.1 km/h 65 % 0.0 in /  0 mm
12:18 7.4 °F /  -13.7 °C 1.2 °F /  -17.1 °C 1018.8 in /  34496.6 hPa NNE 3.7 mph /  6 km/h 3.7 mph /  6 km/h 65 % 0.0 in /  0 mm
12:23 7.4 °F /  -13.7 °C 1.2 °F /  -17.1 °C 1018.8 in /  34496.6 hPa NNE 3.7 mph /  6 km/h 3.7 mph /  6 km/h 65 % 0.0 in /  0 mm
12:28 7.5 °F /  -13.6 °C 1.3 °F /  -17.1 °C 1018.8 in /  34496.6 hPa WNW 2.3 mph /  3.7 km/h 2.3 mph /  3.7 km/h 65 % 0.0 in /  0 mm
12:33 7.6 °F /  -13.6 °C 1.4 °F /  -17 °C 1018.8 in /  34496.6 hPa NW 3.7 mph /  6 km/h   65 % 0.0 in /  0 mm
12:38 7.8 °F /  -13.4 °C 1.6 °F /  -16.9 °C 1018.8 in /  34496.6 hPa WNW 1.9 mph /  3.1 km/h   65 % 0.0 in /  0 mm
12:43 7.9 °F /  -13.4 °C 1.7 °F /  -16.8 °C 1018.8 in /  34496.6 hPa WNW 1.9 mph /  3.1 km/h 1.9 mph /  3.1 km/h 65 % 0.0 in /  0 mm
12:48 7.9 °F /  -13.4 °C 1.5 °F /  -16.9 °C 1017.8 in /  34462.7 hPa East 1.9 mph /  3.1 km/h 1.9 mph /  3.1 km/h 64 % 0.0 in /  0 mm
12:53 8.1 °F /  -13.3 °C 1.9 °F /  -16.7 °C 1017.8 in /  34462.7 hPa SW 2.3 mph /  3.7 km/h 2.3 mph /  3.7 km/h 65 % 0.0 in /  0 mm
12:58 8.2 °F /  -13.2 °C 2.0 °F /  -16.7 °C 1017.8 in /  34462.7 hPa North 3.7 mph /  6 km/h   65 % 0.0 in /  0 mm
13:03 8.1 °F /  -13.3 °C 1.7 °F /  -16.8 °C 1017.8 in /  34462.7 hPa NE 3.9 mph /  6.3 km/h 3.9 mph /  6.3 km/h 64 % 0.0 in /  0 mm
13:08 8.1 °F /  -13.3 °C 1.7 °F /  -16.8 °C 1017.8 in /  34462.7 hPa WNW 3.7 mph /  6 km/h 3.7 mph /  6 km/h 64 % 0.0 in /  0 mm
13:13 8.2 °F /  -13.2 °C 1.8 °F /  -16.8 °C 1017.8 in /  34462.7 hPa ENE 3.7 mph /  6 km/h 3.7 mph /  6 km/h 64 % 0.0 in /  0 mm
13:18 8.3 °F /  -13.2 °C 2.1 °F /  -16.6 °C 1017.8 in /  34462.7 hPa NNE 1.9 mph /  3.1 km/h 1.9 mph /  3.1 km/h 65 % 0.0 in /  0 mm
13:23 8.2 °F /  -13.2 °C 1.8 °F /  -16.8 °C 1017.8 in /  34462.7 hPa ENE 3.7 mph /  6 km/h 3.7 mph /  6 km/h 64 % 0.0 in /  0 mm
13:28 8.1 °F /  -13.3 °C 1.7 °F /  -16.8 °C 1017.8 in /  34462.7 hPa NE 3.9 mph /  6.3 km/h 3.9 mph /  6.3 km/h 64 % 0.0 in /  0 mm
13:33 8.2 °F /  -13.2 °C 1.8 °F /  -16.8 °C 1017.8 in /  34462.7 hPa NNW 1.9 mph /  3.1 km/h   64 % 0.0 in /  0 mm
13:38 8.4 °F /  -13.1 °C 2.0 °F /  -16.7 °C 1017.8 in /  34462.7 hPa ENE 3.7 mph /  6 km/h 3.7 mph /  6 km/h 64 % 0.0 in /  0 mm
13:43 8.7 °F /  -12.9 °C 2.3 °F /  -16.5 °C 1017.8 in /  34462.7 hPa ENE 3.7 mph /  6 km/h 3.7 mph /  6 km/h 64 % 0.0 in /  0 mm
13:48 8.9 °F /  -12.8 °C 2.4 °F /  -16.4 °C 1017.8 in /  34462.7 hPa West 5.6 mph /  9 km/h 5.6 mph /  9 km/h 64 % 0.0 in /  0 mm
13:53 9.2 °F /  -12.7 °C 2.9 °F /  -16.2 °C 1017.8 in /  34462.7 hPa NNW 3.7 mph /  6 km/h 3.7 mph /  6 km/h 65 % 0.0 in /  0 mm
13:58 9.4 °F /  -12.6 °C 3.2 °F /  -16 °C 1017.8 in /  34462.7 hPa WSW 4.7 mph /  7.6 km/h 4.7 mph /  7.6 km/h 65 % 0.0 in /  0 mm
14:03 9.6 °F /  -12.4 °C 3.1 °F /  -16.1 °C 1017.8 in /  34462.7 hPa West 3.7 mph /  6 km/h 3.7 mph /  6 km/h 64 % 0.0 in /  0 mm
14:08 9.9 °F /  -12.3 °C 3.4 °F /  -15.9 °C 1017.8 in /  34462.7 hPa SW 5.6 mph /  9 km/h 5.6 mph /  9 km/h 64 % 0.0 in /  0 mm
14:13 10.2 °F /  -12.1 °C 3.7 °F /  -15.7 °C 1017.8 in /  34462.7 hPa West 1.9 mph /  3.1 km/h 1.9 mph /  3.1 km/h 64 % 0.0 in /  0 mm
14:18 10.3 °F /  -12.1 °C 3.6 °F /  -15.8 °C 1017.8 in /  34462.7 hPa SW 3.7 mph /  6 km/h 3.7 mph /  6 km/h 63 % 0.0 in /  0 mm
14:23 10.4 °F /  -12 °C 3.7 °F /  -15.7 °C 1017.8 in /  34462.7 hPa WNW 2.3 mph /  3.7 km/h 2.3 mph /  3.7 km/h 63 % 0.0 in /  0 mm
14:28 10.4 °F /  -12 °C 3.7 °F /  -15.7 °C 1017.8 in /  34462.7 hPa East 5.6 mph /  9 km/h 5.6 mph /  9 km/h 63 % 0.0 in /  0 mm
14:33 10.5 °F /  -11.9 °C 3.7 °F /  -15.7 °C 1017.8 in /  34462.7 hPa ESE 6.1 mph /  9.8 km/h 6.1 mph /  9.8 km/h 63 % 0.0 in /  0 mm
14:38 10.5 °F /  -11.9 °C 3.5 °F /  -15.8 °C 1017.8 in /  34462.7 hPa ESE 5.6 mph /  9 km/h 5.6 mph /  9 km/h 62 % 0.0 in /  0 mm
14:43 10.6 °F /  -11.9 °C 3.6 °F /  -15.8 °C 1017.8 in /  34462.7 hPa SE 3.7 mph /  6 km/h 3.9 mph /  6.3 km/h 62 % 0.0 in /  0 mm
14:48 10.8 °F /  -11.8 °C 3.6 °F /  -15.8 °C 1017.8 in /  34462.7 hPa SSE 5.6 mph /  9 km/h 5.6 mph /  9 km/h 61 % 0.0 in /  0 mm
14:53 11.0 °F /  -11.7 °C 4.0 °F /  -15.6 °C 1017.8 in /  34462.7 hPa SE 3.7 mph /  6 km/h 3.7 mph /  6 km/h 62 % 0.0 in /  0 mm
14:58 11.2 °F /  -11.6 °C 3.9 °F /  -15.6 °C 1017.8 in /  34462.7 hPa ENE 1.9 mph /  3.1 km/h 1.9 mph /  3.1 km/h 61 % 0.0 in /  0 mm
15:03 11.3 °F /  -11.5 °C 4.1 °F /  -15.5 °C 1017.8 in /  34462.7 hPa ENE 3.7 mph /  6 km/h 3.7 mph /  6 km/h 61 % 0.0 in /  0 mm
15:08 11.4 °F /  -11.4 °C 4.2 °F /  -15.4 °C 1017.8 in /  34462.7 hPa ESE 3.7 mph /  6 km/h 3.7 mph /  6 km/h 61 % 0.0 in /  0 mm
15:13 11.4 °F /  -11.4 °C 4.2 °F /  -15.4 °C 1017.8 in /  34462.7 hPa ESE 5.6 mph /  9 km/h 5.6 mph /  9 km/h 61 % 0.0 in /  0 mm
15:18 11.4 °F /  -11.4 °C 4.2 °F /  -15.4 °C 1016.8 in /  34428.8 hPa ESE 5.6 mph /  9 km/h 5.6 mph /  9 km/h 61 % 0.0 in /  0 mm
15:23 11.6 °F /  -11.3 °C 4.1 °F /  -15.5 °C 1016.8 in /  34428.8 hPa ESE 5.6 mph /  9 km/h 5.6 mph /  9 km/h 60 % 0.0 in /  0 mm
15:28 11.7 °F /  -11.3 °C 4.2 °F /  -15.4 °C 1016.8 in /  34428.8 hPa ENE 3.7 mph /  6 km/h 3.7 mph /  6 km/h 60 % 0.0 in /  0 mm
15:33 11.8 °F /  -11.2 °C 4.3 °F /  -15.4 °C 1017.8 in /  34462.7 hPa ESE 7.4 mph /  11.9 km/h 7.4 mph /  11.9 km/h 60 % 0.0 in /  0 mm
15:38 11.9 °F /  -11.2 °C 4.1 °F /  -15.5 °C 1017.8 in /  34462.7 hPa ESE 7.4 mph /  11.9 km/h 7.4 mph /  11.9 km/h 59 % 0.0 in /  0 mm
15:43 11.9 °F /  -11.2 °C 4.4 °F /  -15.3 °C 1017.8 in /  34462.7 hPa NNE 3.7 mph /  6 km/h 3.7 mph /  6 km/h 60 % 0.0 in /  0 mm
15:48 12.0 °F /  -11.1 °C 4.2 °F /  -15.4 °C 1017.8 in /  34462.7 hPa ESE 5.6 mph /  9 km/h 5.6 mph /  9 km/h 59 % 0.0 in /  0 mm
15:53 12.1 °F /  -11.1 °C 4.3 °F /  -15.4 °C 1017.8 in /  34462.7 hPa ESE 5.6 mph /  9 km/h 5.6 mph /  9 km/h 59 % 0.0 in /  0 mm
15:58 12.2 °F /  -11 °C 4.2 °F /  -15.4 °C 1017.8 in /  34462.7 hPa ESE 5.6 mph /  9 km/h 5.6 mph /  9 km/h 58 % 0.0 in /  0 mm
16:03 12.2 °F /  -11 °C 4.2 °F /  -15.4 °C 1017.8 in /  34462.7 hPa ESE 5.0 mph /  8 km/h 5.0 mph /  8 km/h 58 % 0.0 in /  0 mm
16:08 12.3 °F /  -10.9 °C 4.3 °F /  -15.4 °C 1017.8 in /  34462.7 hPa ESE 7.4 mph /  11.9 km/h 7.4 mph /  11.9 km/h 58 % 0.0 in /  0 mm
16:13 12.2 °F /  -11 °C 4.2 °F /  -15.4 °C 1017.8 in /  34462.7 hPa ESE 7.4 mph /  11.9 km/h 7.4 mph /  11.9 km/h 58 % 0.0 in /  0 mm
16:18 12.2 °F /  -11 °C 4.2 °F /  -15.4 °C 1017.8 in /  34462.7 hPa ESE 9.3 mph /  15 km/h 9.3 mph /  15 km/h 58 % 0.0 in /  0 mm
16:23 12.2 °F /  -11 °C 3.9 °F /  -15.6 °C 1017.8 in /  34462.7 hPa East 7.4 mph /  11.9 km/h 7.4 mph /  11.9 km/h 57 % 0.0 in /  0 mm
16:28 12.2 °F /  -11 °C 3.9 °F /  -15.6 °C 1017.8 in /  34462.7 hPa ESE 4.7 mph /  7.6 km/h 4.7 mph /  7.6 km/h 57 % 0.0 in /  0 mm
16:33 12.2 °F /  -11 °C 3.9 °F /  -15.6 °C 1017.8 in /  34462.7 hPa East 5.6 mph /  9 km/h 5.6 mph /  9 km/h 57 % 0.0 in /  0 mm
16:38 12.3 °F /  -10.9 °C 4.0 °F /  -15.6 °C 1017.8 in /  34462.7 hPa ESE 4.7 mph /  7.6 km/h 4.7 mph /  7.6 km/h 57 % 0.0 in /  0 mm
16:43 12.3 °F /  -10.9 °C 3.8 °F /  -15.7 °C 1017.8 in /  34462.7 hPa East 5.6 mph /  9 km/h 5.6 mph /  9 km/h 56 % 0.0 in /  0 mm
16:48 12.2 °F /  -11 °C 3.7 °F /  -15.7 °C 1017.8 in /  34462.7 hPa East 7.4 mph /  11.9 km/h 7.4 mph /  11.9 km/h 56 % 0.0 in /  0 mm
16:53 12.2 °F /  -11 °C 3.7 °F /  -15.7 °C 1017.8 in /  34462.7 hPa ESE 5.6 mph /  9 km/h 5.8 mph /  9.3 km/h 56 % 0.0 in /  0 mm
16:58 12.2 °F /  -11 °C 3.7 °F /  -15.7 °C 1017.8 in /  34462.7 hPa SE 7.4 mph /  11.9 km/h 7.4 mph /  11.9 km/h 56 % 0.0 in /  0 mm
17:03 12.2 °F /  -11 °C 3.4 °F /  -15.9 °C 1017.8 in /  34462.7 hPa ESE 7.4 mph /  11.9 km/h 7.4 mph /  11.9 km/h 55 % 0.0 in /  0 mm
17:08 12.1 °F /  -11.1 °C 3.3 °F /  -15.9 °C 1017.8 in /  34462.7 hPa ESE 7.4 mph /  11.9 km/h 7.4 mph /  11.9 km/h 55 % 0.0 in /  0 mm
17:13 12.0 °F /  -11.1 °C 3.2 °F /  -16 °C 1017.8 in /  34462.7 hPa East 7.4 mph /  11.9 km/h 7.4 mph /  11.9 km/h 55 % 0.0 in /  0 mm
17:18 11.9 °F /  -11.2 °C 3.1 °F /  -16.1 °C 1017.8 in /  34462.7 hPa East 5.8 mph /  9.3 km/h 5.8 mph /  9.3 km/h 55 % 0.0 in /  0 mm
17:23 11.8 °F /  -11.2 °C 3.1 °F /  -16.1 °C 1017.8 in /  34462.7 hPa ESE 7.9 mph /  12.7 km/h 7.9 mph /  12.7 km/h 55 % 0.0 in /  0 mm
17:28 11.7 °F /  -11.3 °C 2.9 °F /  -16.2 °C 1017.8 in /  34462.7 hPa East 9.3 mph /  15 km/h 9.3 mph /  15 km/h 55 % 0.0 in /  0 mm
17:33 11.6 °F /  -11.3 °C 2.8 °F /  -16.2 °C 1017.8 in /  34462.7 hPa East 9.3 mph /  15 km/h 9.3 mph /  15 km/h 55 % 0.0 in /  0 mm
17:38 11.4 °F /  -11.4 °C 2.9 °F /  -16.2 °C 1017.8 in /  34462.7 hPa East 4.2 mph /  6.8 km/h 4.2 mph /  6.8 km/h 56 % 0.0 in /  0 mm
17:43 11.2 °F /  -11.6 °C 2.7 °F /  -16.3 °C 1017.8 in /  34462.7 hPa ESE 5.6 mph /  9 km/h 5.6 mph /  9 km/h 56 % 0.0 in /  0 mm
17:48 11.1 °F /  -11.6 °C 2.7 °F /  -16.3 °C 1017.8 in /  34462.7 hPa ENE 5.6 mph /  9 km/h 5.6 mph /  9 km/h 56 % 0.0 in /  0 mm
17:53 11.0 °F /  -11.7 °C 2.8 °F /  -16.2 °C 1017.8 in /  34462.7 hPa ESE 5.6 mph /  9 km/h 5.6 mph /  9 km/h 57 % 0.0 in /  0 mm
17:58 10.9 °F /  -11.7 °C 2.7 °F /  -16.3 °C 1017.8 in /  34462.7 hPa NE 3.7 mph /  6 km/h 3.7 mph /  6 km/h 57 % 0.0 in /  0 mm
18:03 10.8 °F /  -11.8 °C 2.8 °F /  -16.2 °C 1018.8 in /  34496.6 hPa North 3.7 mph /  6 km/h 3.7 mph /  6 km/h 58 % 0.0 in /  0 mm
18:08 10.7 °F /  -11.8 °C 2.8 °F /  -16.2 °C 1018.8 in /  34496.6 hPa NE 1.9 mph /  3.1 km/h 2.3 mph /  3.7 km/h 58 % 0.0 in /  0 mm
18:14 10.6 °F /  -11.9 °C 2.7 °F /  -16.3 °C 1018.8 in /  34496.6 hPa North 2.3 mph /  3.7 km/h   58 % 0.0 in /  0 mm
18:19 10.4 °F /  -12 °C 2.7 °F /  -16.3 °C 1018.8 in /  34496.6 hPa NNE 1.9 mph /  3.1 km/h 1.9 mph /  3.1 km/h 59 % 0.0 in /  0 mm
18:24 10.2 °F /  -12.1 °C 2.6 °F /  -16.3 °C 1018.8 in /  34496.6 hPa NE 3.7 mph /  6 km/h 3.7 mph /  6 km/h 59 % 0.0 in /  0 mm
18:29 10.2 °F /  -12.1 °C 2.6 °F /  -16.3 °C 1018.8 in /  34496.6 hPa NNE 4.2 mph /  6.8 km/h 4.2 mph /  6.8 km/h 59 % 0.0 in /  0 mm
18:30 6.9 °F /  -13.9 °C 2.0 °F /  -16.7 °C 1019.9 in /  34533.8 hPa West 1.6 mph /  2.6 km/h 3.2 mph /  5.1 km/h 71 % 0.0 in /  0 mm
18:34 10.1 °F /  -12.2 °C 2.7 °F /  -16.3 °C 1018.8 in /  34496.6 hPa NNE 1.9 mph /  3.1 km/h   60 % 0.0 in /  0 mm
18:39 10.0 °F /  -12.2 °C 2.6 °F /  -16.3 °C 1018.8 in /  34496.6 hPa NE 1.9 mph /  3.1 km/h   60 % 0.0 in /  0 mm
18:40 7.0 °F /  -13.9 °C 2.1 °F /  -16.6 °C 1019.9 in /  34533.8 hPa Calm     71 % 0.0 in /  0 mm
18:44 10.0 °F /  -12.2 °C 2.6 °F /  -16.3 °C 1018.8 in /  34496.6 hPa ENE 1.9 mph /  3.1 km/h   60 % 0.0 in /  0 mm
18:49 9.9 °F /  -12.3 °C 2.7 °F /  -16.3 °C 1018.8 in /  34496.6 hPa Calm     61 % 0.0 in /  0 mm
18:50 6.9 °F /  -13.9 °C 2.0 °F /  -16.7 °C 1020.9 in /  34567.7 hPa WNW 3.2 mph /  5.1 km/h 3.2 mph /  5.1 km/h 71 % 0.0 in /  0 mm
18:54 9.8 °F /  -12.3 °C 2.6 °F /  -16.3 °C 1018.8 in /  34496.6 hPa Calm     61 % 0.0 in /  0 mm
18:59 9.8 °F /  -12.3 °C 2.6 °F /  -16.3 °C 1018.8 in /  34496.6 hPa Calm     61 % 0.0 in /  0 mm
19:00 6.7 °F /  -14.1 °C 1.8 °F /  -16.8 °C 1020.9 in /  34567.7 hPa WSW 3.2 mph /  5.1 km/h 4.8 mph /  7.7 km/h 71 % 0.0 in /  0 mm
19:04 9.8 °F /  -12.3 °C 2.6 °F /  -16.3 °C 1018.8 in /  34496.6 hPa Calm     61 % 0.0 in /  0 mm
19:09 9.8 °F /  -12.3 °C 2.6 °F /  -16.3 °C 1018.8 in /  34496.6 hPa NE 2.6 mph /  4.2 km/h 2.6 mph /  4.2 km/h 61 % 0.0 in /  0 mm
19:10 6.7 °F /  -14.1 °C 2.0 °F /  -16.7 °C 1020.9 in /  34567.7 hPa West 3.2 mph /  5.1 km/h 3.2 mph /  5.1 km/h 72 % 0.0 in /  0 mm
19:14 9.8 °F /  -12.3 °C 2.6 °F /  -16.3 °C 1018.8 in /  34496.6 hPa Calm     61 % 0.0 in /  0 mm
19:19 9.7 °F /  -12.4 °C 2.6 °F /  -16.3 °C 1018.8 in /  34496.6 hPa Calm     61 % 0.0 in /  0 mm
19:20 6.8 °F /  -14 °C 2.1 °F /  -16.6 °C 1019.9 in /  34533.8 hPa Calm   1.6 mph /  2.6 km/h 72 % 0.0 in /  0 mm
19:24 9.5 °F /  -12.5 °C 2.3 °F /  -16.5 °C 1018.8 in /  34496.6 hPa NNW 2.3 mph /  3.7 km/h 2.3 mph /  3.7 km/h 61 % 0.0 in /  0 mm
19:29 9.4 °F /  -12.6 °C 2.5 °F /  -16.4 °C 1018.8 in /  34496.6 hPa Calm     62 % 0.0 in /  0 mm
19:30 6.8 °F /  -14 °C 2.1 °F /  -16.6 °C 1019.9 in /  34533.8 hPa NW 1.6 mph /  2.6 km/h   72 % 0.0 in /  0 mm
19:34 9.2 °F /  -12.7 °C 2.3 °F /  -16.5 °C 1018.8 in /  34496.6 hPa WNW 2.6 mph /  4.2 km/h 2.6 mph /  4.2 km/h 62 % 0.0 in /  0 mm
19:39 9.0 °F /  -12.8 °C 2.1 °F /  -16.6 °C 1018.8 in /  34496.6 hPa Calm     62 % 0.0 in /  0 mm
19:40 6.5 °F /  -14.2 °C 1.8 °F /  -16.8 °C 1019.9 in /  34533.8 hPa Calm   3.2 mph /  5.1 km/h 72 % 0.0 in /  0 mm
19:44 8.9 °F /  -12.8 °C 2.0 °F /  -16.7 °C 1018.8 in /  34496.6 hPa WNW 1.9 mph /  3.1 km/h 1.9 mph /  3.1 km/h 62 % 0.0 in /  0 mm
19:49 8.7 °F /  -12.9 °C 1.8 °F /  -16.8 °C 1019.9 in /  34533.8 hPa Calm     62 % 0.0 in /  0 mm
19:50 6.3 °F /  -14.3 °C 1.4 °F /  -17 °C 1020.9 in /  34567.7 hPa West 1.6 mph /  2.6 km/h 1.6 mph /  2.6 km/h 71 % 0.0 in /  0 mm
19:54 8.5 °F /  -13.1 °C 1.6 °F /  -16.9 °C 1019.9 in /  34533.8 hPa West 3.7 mph /  6 km/h 3.7 mph /  6 km/h 62 % 0.0 in /  0 mm
19:59 8.5 °F /  -13.1 °C 1.8 °F /  -16.8 °C 1019.9 in /  34533.8 hPa West 1.9 mph /  3.1 km/h 1.9 mph /  3.1 km/h 63 % 0.0 in /  0 mm
20:00 6.3 °F /  -14.3 °C 1.6 °F /  -16.9 °C 1020.9 in /  34567.7 hPa Calm   1.6 mph /  2.6 km/h 72 % 0.0 in /  0 mm
20:04 8.6 °F /  -13 °C 1.9 °F /  -16.7 °C 1018.8 in /  34496.6 hPa Calm     63 % 0.0 in /  0 mm
20:09 8.6 °F /  -13 °C 1.9 °F /  -16.7 °C 1018.8 in /  34496.6 hPa Calm     63 % 0.0 in /  0 mm
20:10 6.1 °F /  -14.4 °C 1.6 °F /  -16.9 °C 1020.9 in /  34567.7 hPa NW 1.6 mph /  2.6 km/h 1.6 mph /  2.6 km/h 73 % 0.0 in /  0 mm
20:14 8.7 °F /  -12.9 °C 2.1 °F /  -16.6 °C 1018.8 in /  34496.6 hPa Calm     63 % 0.0 in /  0 mm
20:19 8.8 °F /  -12.9 °C 2.3 °F /  -16.5 °C 1018.8 in /  34496.6 hPa Calm     64 % 0.0 in /  0 mm
20:20 6.1 °F /  -14.4 °C 1.6 °F /  -16.9 °C 1020.9 in /  34567.7 hPa Calm   1.6 mph /  2.6 km/h 73 % 0.0 in /  0 mm
20:24 8.8 °F /  -12.9 °C 2.3 °F /  -16.5 °C 1018.8 in /  34496.6 hPa Calm     64 % 0.0 in /  0 mm
20:29 8.7 °F /  -12.9 °C 2.3 °F /  -16.5 °C 1018.8 in /  34496.6 hPa NNE 3.2 mph /  5.1 km/h 3.2 mph /  5.1 km/h 64 % 0.0 in /  0 mm
20:30 5.8 °F /  -14.6 °C 1.1 °F /  -17.2 °C 1020.9 in /  34567.7 hPa NNE 3.2 mph /  5.1 km/h 3.2 mph /  5.1 km/h 72 % 0.0 in /  0 mm
20:34 8.5 °F /  -13.1 °C 2.1 °F /  -16.6 °C 1019.9 in /  34533.8 hPa NE 3.2 mph /  5.1 km/h 3.2 mph /  5.1 km/h 64 % 0.0 in /  0 mm
20:39 8.4 °F /  -13.1 °C 2.0 °F /  -16.7 °C 1019.9 in /  34533.8 hPa NE 2.3 mph /  3.7 km/h 2.3 mph /  3.7 km/h 64 % 0.0 in /  0 mm
20:40 5.7 °F /  -14.6 °C 1.1 °F /  -17.2 °C 1020.9 in /  34567.7 hPa Calm   1.6 mph /  2.6 km/h 72 % 0.0 in /  0 mm
20:44 8.3 °F /  -13.2 °C 1.9 °F /  -16.7 °C 1019.9 in /  34533.8 hPa Calm     64 % 0.0 in /  0 mm
20:50 5.5 °F /  -14.7 °C 0.7 °F /  -17.4 °C 1020.9 in /  34567.7 hPa Calm     71 % 0.0 in /  0 mm
20:54 8.1 °F /  -13.3 °C 1.9 °F /  -16.7 °C 1019.9 in /  34533.8 hPa Calm     65 % 0.0 in /  0 mm
20:59 8.1 °F /  -13.3 °C 1.9 °F /  -16.7 °C 1019.9 in /  34533.8 hPa Calm     65 % 0.0 in /  0 mm
21:00 5.2 °F /  -14.9 °C 0.4 °F /  -17.6 °C 1020.9 in /  34567.7 hPa Calm     71 % 0.0 in /  0 mm
21:04 7.9 °F /  -13.4 °C 1.7 °F /  -16.8 °C 1019.9 in /  34533.8 hPa Calm     65 % 0.0 in /  0 mm
21:09 7.8 °F /  -13.4 °C 1.6 °F /  -16.9 °C 1019.9 in /  34533.8 hPa Calm     65 % 0.0 in /  0 mm
21:10 5.1 °F /  -14.9 °C 0.3 °F /  -17.6 °C 1020.9 in /  34567.7 hPa Calm     71 % 0.0 in /  0 mm
21:14 7.6 °F /  -13.6 °C 1.7 °F /  -16.8 °C 1019.9 in /  34533.8 hPa Calm     66 % 0.0 in /  0 mm
21:19 7.4 °F /  -13.7 °C 1.4 °F /  -17 °C 1018.8 in /  34496.6 hPa NE 1.9 mph /  3.1 km/h   66 % 0.0 in /  0 mm
21:20 4.8 °F /  -15.1 °C 0.2 °F /  -17.7 °C 1020.9 in /  34567.7 hPa Calm   1.6 mph /  2.6 km/h 72 % 0.0 in /  0 mm
21:24 7.4 °F /  -13.7 °C 1.7 °F /  -16.8 °C 1018.8 in /  34496.6 hPa East 1.9 mph /  3.1 km/h   67 % 0.0 in /  0 mm
21:29 7.2 °F /  -13.8 °C 1.3 °F /  -17.1 °C 1018.8 in /  34496.6 hPa SSW 2.3 mph /  3.7 km/h   66 % 0.0 in /  0 mm
21:30 4.8 °F /  -15.1 °C 0.2 °F /  -17.7 °C 1020.9 in /  34567.7 hPa Calm   1.6 mph /  2.6 km/h 72 % 0.0 in /  0 mm
21:34 7.0 °F /  -13.9 °C 1.3 °F /  -17.1 °C 1019.9 in /  34533.8 hPa SSW 1.9 mph /  3.1 km/h   67 % 0.0 in /  0 mm
21:39 6.9 °F /  -13.9 °C 1.0 °F /  -17.2 °C 1019.9 in /  34533.8 hPa Calm     66 % 0.0 in /  0 mm
21:40 4.8 °F /  -15.1 °C 0.2 °F /  -17.7 °C 1020.9 in /  34567.7 hPa Calm   3.2 mph /  5.1 km/h 72 % 0.0 in /  0 mm
21:44 6.8 °F /  -14 °C 1.1 °F /  -17.2 °C 1019.9 in /  34533.8 hPa WSW 3.5 mph /  5.6 km/h 3.5 mph /  5.6 km/h 67 % 0.0 in /  0 mm
21:49 6.7 °F /  -14.1 °C 1.0 °F /  -17.2 °C 1018.8 in /  34496.6 hPa WSW 1.9 mph /  3.1 km/h   67 % 0.0 in /  0 mm
21:50 4.8 °F /  -15.1 °C 0.2 °F /  -17.7 °C 1020.9 in /  34567.7 hPa Calm     72 % 0.0 in /  0 mm
21:54 6.6 °F /  -14.1 °C 1.1 °F /  -17.2 °C 1018.8 in /  34496.6 hPa Calm     68 % 0.0 in /  0 mm
21:59 6.5 °F /  -14.2 °C 1.0 °F /  -17.2 °C 1018.8 in /  34496.6 hPa Calm     68 % 0.0 in /  0 mm
22:00 5.0 °F /  -15 °C 0.2 °F /  -17.7 °C 1020.9 in /  34567.7 hPa WNW 1.6 mph /  2.6 km/h 3.2 mph /  5.1 km/h 71 % 0.0 in /  0 mm
22:04 6.4 °F /  -14.2 °C 0.7 °F /  -17.4 °C 1019.9 in /  34533.8 hPa WSW 1.4 mph /  2.3 km/h   67 % 0.0 in /  0 mm
22:09 6.4 °F /  -14.2 °C 0.9 °F /  -17.3 °C 1019.9 in /  34533.8 hPa Calm     68 % 0.0 in /  0 mm
22:10 5.0 °F /  -15 °C 0.2 °F /  -17.7 °C 1020.9 in /  34567.7 hPa WNW 3.2 mph /  5.1 km/h 4.8 mph /  7.7 km/h 71 % 0.0 in /  0 mm
22:14 6.4 °F /  -14.2 °C 0.9 °F /  -17.3 °C 1019.9 in /  34533.8 hPa Calm     68 % 0.0 in /  0 mm
22:19 6.3 °F /  -14.3 °C 1.0 °F /  -17.2 °C 1020.9 in /  34567.7 hPa Calm     69 % 0.0 in /  0 mm
22:20 5.1 °F /  -14.9 °C 0.3 °F /  -17.6 °C 1020.9 in /  34567.7 hPa NW 4.8 mph /  7.7 km/h 6.4 mph /  10.3 km/h 71 % 0.0 in /  0 mm
22:24 6.3 °F /  -14.3 °C 1.0 °F /  -17.2 °C 1020.9 in /  34567.7 hPa Calm     69 % 0.0 in /  0 mm
22:29 6.4 °F /  -14.2 °C 1.1 °F /  -17.2 °C 1020.9 in /  34567.7 hPa WNW 3.7 mph /  6 km/h 3.7 mph /  6 km/h 69 % 0.0 in /  0 mm
22:30 5.0 °F /  -15 °C 0.2 °F /  -17.7 °C 1020.9 in /  34567.7 hPa North 4.8 mph /  7.7 km/h 4.8 mph /  7.7 km/h 71 % 0.0 in /  0 mm
22:34 6.6 °F /  -14.1 °C 1.3 °F /  -17.1 °C 1020.9 in /  34567.7 hPa Calm     69 % 0.0 in /  0 mm
22:39 6.7 °F /  -14.1 °C 1.6 °F /  -16.9 °C 1020.9 in /  34567.7 hPa Calm     70 % 0.0 in /  0 mm
22:40 5.0 °F /  -15 °C 0.0 °F /  -17.8 °C 1020.9 in /  34567.7 hPa Calm   6.4 mph /  10.3 km/h 70 % 0.0 in /  0 mm
22:44 6.8 °F /  -14 °C 1.7 °F /  -16.8 °C 1020.9 in /  34567.7 hPa NNE 3.7 mph /  6 km/h 3.7 mph /  6 km/h 70 % 0.0 in /  0 mm
22:49 6.9 °F /  -13.9 °C 1.8 °F /  -16.8 °C 1020.9 in /  34567.7 hPa ENE 3.2 mph /  5.1 km/h 3.2 mph /  5.1 km/h 70 % 0.0 in /  0 mm
22:50 4.8 °F /  -15.1 °C -0.2 °F /  -17.9 °C 1019.9 in /  34533.8 hPa Calm   3.2 mph /  5.1 km/h 70 % 0.0 in /  0 mm
22:54 6.8 °F /  -14 °C 1.9 °F /  -16.7 °C 1020.9 in /  34567.7 hPa East 1.9 mph /  3.1 km/h   71 % 0.0 in /  0 mm
22:59 6.6 °F /  -14.1 °C 1.5 °F /  -16.9 °C 1020.9 in /  34567.7 hPa ENE 3.5 mph /  5.6 km/h 3.5 mph /  5.6 km/h 70 % 0.0 in /  0 mm
23:00 4.7 °F /  -15.2 °C -0.1 °F /  -17.8 °C 1019.9 in /  34533.8 hPa NNW 1.6 mph /  2.6 km/h 3.2 mph /  5.1 km/h 71 % 0.0 in /  0 mm
23:04 6.5 °F /  -14.2 °C 1.4 °F /  -17 °C 1020.9 in /  34567.7 hPa SW 3.7 mph /  6 km/h 3.7 mph /  6 km/h 70 % 0.0 in /  0 mm
23:09 6.3 °F /  -14.3 °C 1.2 °F /  -17.1 °C 1020.9 in /  34567.7 hPa ESE 3.7 mph /  6 km/h 3.7 mph /  6 km/h 70 % 0.0 in /  0 mm
23:10 4.3 °F /  -15.4 °C -0.7 °F /  -18.2 °C 1020.9 in /  34567.7 hPa NW 1.6 mph /  2.6 km/h 4.8 mph /  7.7 km/h 70 % 0.0 in /  0 mm
23:14 6.3 °F /  -14.3 °C 1.2 °F /  -17.1 °C 1020.9 in /  34567.7 hPa SW 3.7 mph /  6 km/h   70 % 0.0 in /  0 mm
23:19 6.3 °F /  -14.3 °C 1.2 °F /  -17.1 °C 1020.9 in /  34567.7 hPa Calm     70 % 0.0 in /  0 mm
23:20 4.7 °F /  -15.2 °C -0.1 °F /  -17.8 °C 1020.9 in /  34567.7 hPa NW 1.6 mph /  2.6 km/h 3.2 mph /  5.1 km/h 71 % 0.0 in /  0 mm
23:24 6.3 °F /  -14.3 °C 1.4 °F /  -17 °C 1020.9 in /  34567.7 hPa Calm     71 % 0.0 in /  0 mm
23:29 6.3 °F /  -14.3 °C 1.2 °F /  -17.1 °C 1020.9 in /  34567.7 hPa SW 3.7 mph /  6 km/h 3.7 mph /  6 km/h 70 % 0.0 in /  0 mm
23:30 4.9 °F /  -15.1 °C 0.3 °F /  -17.6 °C 1020.9 in /  34567.7 hPa NNE 1.6 mph /  2.6 km/h 3.2 mph /  5.1 km/h 72 % 0.0 in /  0 mm
23:34 6.2 °F /  -14.3 °C 1.1 °F /  -17.2 °C 1020.9 in /  34567.7 hPa SW 3.7 mph /  6 km/h 3.7 mph /  6 km/h 70 % 0.0 in /  0 mm
23:39 6.2 °F /  -14.3 °C 1.1 °F /  -17.2 °C 1020.9 in /  34567.7 hPa SW 3.7 mph /  6 km/h 3.7 mph /  6 km/h 70 % 0.0 in /  0 mm
23:40 4.9 °F /  -15.1 °C 0.1 °F /  -17.7 °C 1020.9 in /  34567.7 hPa NE 1.6 mph /  2.6 km/h 3.2 mph /  5.1 km/h 71 % 0.0 in /  0 mm
23:44 6.4 °F /  -14.2 °C 1.5 °F /  -16.9 °C 1020.9 in /  34567.7 hPa SW 3.7 mph /  6 km/h 3.7 mph /  6 km/h 71 % 0.0 in /  0 mm
23:49 6.5 °F /  -14.2 °C 1.4 °F /  -17 °C 1019.9 in /  34533.8 hPa WSW 3.7 mph /  6 km/h 3.7 mph /  6 km/h 70 % 0.0 in /  0 mm
23:50 4.7 °F /  -15.2 °C -0.1 °F /  -17.8 °C 1020.9 in /  34567.7 hPa NNE 1.6 mph /  2.6 km/h 4.8 mph /  7.7 km/h 71 % 0.0 in /  0 mm
23:54 6.5 °F /  -14.2 °C 1.6 °F /  -16.9 °C 1019.9 in /  34533.8 hPa WSW 3.7 mph /  6 km/h 3.7 mph /  6 km/h 71 % 0.0 in /  0 mm
23:59 6.6 °F /  -14.1 °C 1.7 °F /  -16.8 °C 1019.9 in /  34533.8 hPa SW 3.7 mph /  6 km/h   71 % 0.0 in /  0 mm
Meteo Sesrovires
Elogis d' Weather Underground - 2.5 mb

Guio original per  Jim McMurry - jmcmurry@mwt.net Adaptat per a la plantilla per  Wim van der Kuil - Leuven-Template.eu

Trobareu la nostra informacio del temps tambe a:

Weather Underground

AWEKAS